Terminal Aerodrome Forecast
Issued by NWS Wilmington, OH

Current Version | Previous Version | Text Only | Print | Product List | Glossary Off
Versions: 1 2 3 4 5 6 7 8 9 10 11 12 13 14

000
FTUS41 KILN 031100
TAFILN
TAF
KILN 031120Z 0312/0412 21003KT P6SM BKN250
     FM031300 21012KT P6SM SCT070 SCT250
     FM040000 18005KT P6SM SKC=

USA.gov is the U.S. government's official web portal to all federal, state and local government web resources and services.